Sunday, July 22, 2018, 2:31 PM GMT
Back to Local

CWEW, L'Assomption

Location: , , Canada Lat: 45.817
Local Time: 2:31 PM GMT (14:31 GMT) Lon: -73.433
Time Zone: GMT Elev: 68 ft

Show me the last for .
Show Coded

Time T Td Feel RH Dir Speed Gust Alt SLP Vis Weather Sky Remarks
2018-07-22 14:00 69 56 - 62 50° 5 - - 30.10 0 None
2018-07-22 13:00 68 53 - 58 60° 7 - - 30.09 0 None
2018-07-22 12:00 66 56 - 69 60° 8 - - 30.08 0 None
2018-07-22 11:00 64 57 - 78 60° 5 - - 30.08 0 None
2018-07-22 10:00 63 57 - 80 50° 3 - - 30.08 0 None
2018-07-22 09:00 64 57 - 78 50° 2 - - 30.07 0 None
2018-07-22 08:00 66 55 - 66 130° 2 - - 30.07 0 None
2018-07-22 07:00 67 60 - 78 100° 2 - - 30.07 0 None
2018-07-22 06:00 67 58 - 73 90° 1 - - 30.07 0 None
2018-07-22 05:00 71 57 76 61 100° 2 - - 30.06 0 1-hr Precip Total: 0.02"
2018-07-22 04:00 72 61 76 68 150° 3 - - 30.06 0 None
2018-07-22 03:00 72 66 76 81 110° 2 - - 30.05 0 None
2018-07-22 02:00 72 66 76 80 60° 1 - - 30.05 0 None
2018-07-22 01:00 76 65 78 68 50° 1 - - 30.04 0 None
2018-07-22 00:00 82 60 83 47 70° 3 - - 30.03 0 None
2018-07-21 23:00 84 61 85 45 70° 5 - - 30.02 0 None
2018-07-21 22:00 86 59 - 39 80° 6 - - 30.03 0 None
2018-07-21 21:00 86 59 87 40 80° 7 - - 30.03 0 None
2018-07-21 20:00 85 61 86 43 80° 6 - - 30.04 0 None
2018-07-21 19:00 85 62 87 46 80° 5 - - 30.06 0 None
2018-07-21 18:00 83 63 85 49 70° 7 - - 30.07 0 None
2018-07-21 17:00 83 62 84 50 70° 3 - - 30.09 0 None
2018-07-21 16:00 82 62 84 50 120° 3 - - 30.11 0 None
2018-07-21 15:00 80 61 81 52 80° 1 - - 30.11 0 None

Support USWX by starting your Amazon purchase here.